createdAt,value
2019-05-20T00:02:28.029Z,44.80
2019-05-20T00:04:54.375Z,44.80
2019-05-20T00:07:24.061Z,44.90
2019-05-20T00:09:53.594Z,44.90
2019-05-20T00:12:23.154Z,45.00
2019-05-20T00:14:52.706Z,45.00
2019-05-20T00:17:22.440Z,45.10
2019-05-20T00:19:52.306Z,44.90
2019-05-20T00:22:21.902Z,45.00
2019-05-20T00:24:51.471Z,45.10
2019-05-20T00:27:21.107Z,45.00
2019-05-20T00:29:50.860Z,45.10
2019-05-20T00:32:20.431Z,45.30
2019-05-20T00:34:49.961Z,45.20
2019-05-20T00:37:19.512Z,45.20
2019-05-20T00:39:49.250Z,45.20
2019-05-20T00:42:18.770Z,45.20
2019-05-20T00:44:48.322Z,45.20
2019-05-20T00:47:17.886Z,45.40
2019-05-20T00:49:47.574Z,45.30
2019-05-20T00:52:17.178Z,45.50
2019-05-20T00:54:46.724Z,45.30
2019-05-20T00:57:16.342Z,45.40
2019-05-20T00:59:46.320Z,45.40
2019-05-20T01:02:16.847Z,45.40
2019-05-20T01:04:46.404Z,45.40
2019-05-20T01:07:16.080Z,45.50
2019-05-20T01:09:45.957Z,45.40
2019-05-20T01:12:15.498Z,45.50
2019-05-20T01:14:45.187Z,45.70
2019-05-20T01:17:14.762Z,45.70
2019-05-20T01:19:44.319Z,45.80
2019-05-20T01:22:13.985Z,45.70
2019-05-20T01:24:43.591Z,45.80
2019-05-20T01:27:13.422Z,45.90
2019-05-20T01:29:43.122Z,45.80
2019-05-20T01:32:12.788Z,46.00
2019-05-20T01:34:42.363Z,46.10
2019-05-20T01:37:12.270Z,46.10
2019-05-20T01:39:42.085Z,46.30
2019-05-20T01:42:12.009Z,46.20
2019-05-20T01:44:41.551Z,46.20
2019-05-20T01:47:11.484Z,46.40
2019-05-20T01:49:41.012Z,46.40
2019-05-20T01:52:10.633Z,46.40
2019-05-20T01:54:40.227Z,46.40
2019-05-20T01:57:09.874Z,46.50
2019-05-20T01:59:39.538Z,46.60
2019-05-20T02:02:09.511Z,46.70
2019-05-20T02:04:40.329Z,46.60
2019-05-20T02:07:09.978Z,46.70
2019-05-20T02:09:39.616Z,46.90
2019-05-20T02:12:09.730Z,47.00
2019-05-20T02:14:44.839Z,46.90
2019-05-20T02:17:14.397Z,46.90
2019-05-20T02:19:43.929Z,46.90
2019-05-20T02:22:13.562Z,47.00
2019-05-20T02:24:43.166Z,47.00
2019-05-20T02:27:12.729Z,47.10
2019-05-20T02:29:42.527Z,47.20
2019-05-20T02:32:12.223Z,47.30
2019-05-20T02:34:41.813Z,47.30
2019-05-20T02:37:11.447Z,47.50
2019-05-20T02:39:40.992Z,47.50
2019-05-20T02:42:10.584Z,47.50
2019-05-20T02:44:40.119Z,47.60
2019-05-20T02:47:09.660Z,47.60
2019-05-20T02:49:39.234Z,47.60
2019-05-20T02:52:09.112Z,47.60
2019-05-20T02:54:38.663Z,47.80
2019-05-20T02:57:08.918Z,47.80
2019-05-20T02:59:38.454Z,47.90
2019-05-20T03:02:08.004Z,47.90
2019-05-20T03:04:37.897Z,47.80
2019-05-20T03:07:07.753Z,47.90
2019-05-20T03:09:37.543Z,47.90
2019-05-20T03:12:07.088Z,47.90
2019-05-20T03:14:36.612Z,48.00
2019-05-20T03:17:06.129Z,48.00
2019-05-20T03:19:35.642Z,48.20
2019-05-20T03:22:05.285Z,48.00
2019-05-20T03:24:34.863Z,48.00
2019-05-20T03:27:04.403Z,48.00
2019-05-20T03:29:33.950Z,48.10
2019-05-20T03:32:03.611Z,48.30
2019-05-20T03:34:50.650Z,48.50
2019-05-20T03:37:05.461Z,48.70
2019-05-20T03:39:35.045Z,48.70
2019-05-20T03:42:07.097Z,48.70
2019-05-20T03:44:36.695Z,48.80
2019-05-20T03:47:06.334Z,48.90
2019-05-20T03:49:35.972Z,48.80
2019-05-20T03:52:05.770Z,48.90
2019-05-20T03:54:35.325Z,49.40
2019-05-20T03:57:04.850Z,48.80
2019-05-20T03:59:34.687Z,48.70
2019-05-20T04:02:04.474Z,48.90
2019-05-20T04:04:34.038Z,48.80
2019-05-20T04:07:03.974Z,48.90
2019-05-20T04:09:33.612Z,48.80
2019-05-20T04:12:03.194Z,48.80
2019-05-20T04:14:32.744Z,48.90
2019-05-20T04:17:02.263Z,49.00
2019-05-20T04:19:31.802Z,49.20
2019-05-20T04:22:01.352Z,49.10
2019-05-20T04:24:30.910Z,49.10
2019-05-20T04:27:01.234Z,49.30
2019-05-20T04:29:30.807Z,49.20
2019-05-20T04:32:00.422Z,49.30
2019-05-20T04:34:31.171Z,49.50
2019-05-20T04:37:01.018Z,49.40
2019-05-20T04:39:30.804Z,49.50
2019-05-20T04:42:00.372Z,49.40
2019-05-20T04:44:29.914Z,49.40
2019-05-20T04:46:59.486Z,49.40
2019-05-20T04:49:29.221Z,49.40
2019-05-20T04:51:58.761Z,49.40
2019-05-20T04:54:28.362Z,49.40
2019-05-20T04:56:58.224Z,49.40
2019-05-20T04:59:27.778Z,49.40
2019-05-20T05:01:57.355Z,49.40
2019-05-20T05:04:27.539Z,49.50
2019-05-20T05:06:57.066Z,50.00
2019-05-20T05:09:26.670Z,49.30
2019-05-20T05:11:59.466Z,49.30
2019-05-20T05:14:29.114Z,49.20
2019-05-20T05:16:59.256Z,49.20
2019-05-20T05:19:28.870Z,49.20
2019-05-20T05:21:58.777Z,49.20
2019-05-20T05:24:28.914Z,49.30
2019-05-20T05:26:58.499Z,49.40
2019-05-20T05:29:28.761Z,49.60
2019-05-20T05:31:58.690Z,49.70
2019-05-20T05:34:31.338Z,49.80
2019-05-20T05:37:01.072Z,49.80
2019-05-20T05:39:30.627Z,49.80
2019-05-20T05:42:06.310Z,49.80
2019-05-20T05:44:35.940Z,49.80
2019-05-20T05:47:06.065Z,49.80
2019-05-20T05:49:35.978Z,49.80
2019-05-20T05:52:05.554Z,49.80
2019-05-20T05:54:35.254Z,50.00
2019-05-20T05:57:04.843Z,49.90
2019-05-20T05:59:34.553Z,50.00
2019-05-20T06:02:04.202Z,50.20
2019-05-20T06:04:44.736Z,50.30
2019-05-20T06:07:15.058Z,50.50
2019-05-20T06:09:44.958Z,50.80
2019-05-20T06:12:14.953Z,51.00
2019-05-20T06:14:45.331Z,51.00
2019-05-20T06:17:15.244Z,51.70
2019-05-20T06:19:45.116Z,51.00
2019-05-20T06:22:14.882Z,50.90
2019-05-20T06:24:44.787Z,50.80
2019-05-20T06:27:14.437Z,50.60
2019-05-20T06:29:43.981Z,50.20
2019-05-20T06:32:13.520Z,50.00
2019-05-20T06:34:43.251Z,49.60
2019-05-20T06:37:14.875Z,49.60
2019-05-20T06:39:44.638Z,49.60
2019-05-20T06:42:14.278Z,49.60
2019-05-20T06:44:52.855Z,49.70
2019-05-20T06:47:17.280Z,49.20
2019-05-20T06:49:47.232Z,48.50
2019-05-20T06:52:17.090Z,47.80
2019-05-20T06:54:46.707Z,47.60
2019-05-20T06:57:16.378Z,47.40
2019-05-20T06:59:46.561Z,47.10
2019-05-20T07:02:16.395Z,47.20
2019-05-20T07:04:45.950Z,47.00
2019-05-20T07:07:20.938Z,46.90
2019-05-20T07:09:47.183Z,46.60
2019-05-20T07:12:20.220Z,46.40
2019-05-20T07:14:49.823Z,46.50
2019-05-20T07:17:19.761Z,46.70
2019-05-20T07:19:49.942Z,46.90
2019-05-20T07:22:19.721Z,47.00
2019-05-20T07:24:49.495Z,47.00
2019-05-20T07:27:19.169Z,46.80
2019-05-20T07:29:48.993Z,46.60
2019-05-20T07:32:18.720Z,46.60
2019-05-20T07:34:48.436Z,46.50
2019-05-20T07:37:18.328Z,46.50
2019-05-20T07:39:48.140Z,46.50
2019-05-20T07:42:18.107Z,46.40
2019-05-20T07:44:47.944Z,46.60
2019-05-20T07:47:17.618Z,46.50
2019-05-20T07:49:47.224Z,46.80
2019-05-20T07:52:17.188Z,46.90
2019-05-20T07:54:46.774Z,46.90
2019-05-20T07:57:16.647Z,47.00
2019-05-20T07:59:46.512Z,46.90
2019-05-20T08:02:16.196Z,46.80
2019-05-20T08:04:54.421Z,46.80
2019-05-20T08:07:35.675Z,46.60
2019-05-20T08:09:57.315Z,46.70
2019-05-20T08:12:26.887Z,46.50
2019-05-20T08:14:56.513Z,46.50
2019-05-20T08:17:26.073Z,46.40
2019-05-20T08:19:55.615Z,46.30
2019-05-20T08:22:25.497Z,46.40
2019-05-20T08:24:55.070Z,46.40
2019-05-20T08:27:24.770Z,46.40
2019-05-20T08:29:54.481Z,46.30
2019-05-20T08:32:24.316Z,46.20
2019-05-20T08:34:54.287Z,46.10
2019-05-20T08:37:24.034Z,46.10
2019-05-20T08:39:53.637Z,46.10
2019-05-20T08:42:23.170Z,46.00
2019-05-20T08:44:52.921Z,46.00
2019-05-20T08:47:22.494Z,46.30
2019-05-20T08:49:52.294Z,46.20
2019-05-20T08:52:22.067Z,46.20
2019-05-20T08:54:51.697Z,46.40
2019-05-20T08:57:21.366Z,46.60
2019-05-20T08:59:50.934Z,46.90
2019-05-20T09:02:20.604Z,47.00
2019-05-20T09:04:50.618Z,47.30
2019-05-20T09:07:20.204Z,47.30
2019-05-20T09:09:49.839Z,47.30
2019-05-20T09:12:28.152Z,47.10
2019-05-20T09:15:02.177Z,47.00
2019-05-20T09:17:31.890Z,47.00
2019-05-20T09:20:01.809Z,47.10
2019-05-20T09:22:31.932Z,47.10
2019-05-20T09:25:01.841Z,47.10
2019-05-20T09:27:32.297Z,47.20
2019-05-20T09:30:02.842Z,47.30
2019-05-20T09:32:32.824Z,47.30
2019-05-20T09:35:10.537Z,47.10
2019-05-20T09:37:40.128Z,47.00
2019-05-20T09:40:09.941Z,47.00
2019-05-20T09:56:51.650Z,45.40
2019-05-20T09:59:21.383Z,44.90
2019-05-20T10:01:50.963Z,44.40
2019-05-20T10:04:20.651Z,43.90
2019-05-20T10:06:50.715Z,43.80
2019-05-20T10:09:20.580Z,43.90
2019-05-20T10:11:50.115Z,44.10
2019-05-20T10:14:19.646Z,44.40
2019-05-20T10:16:50.250Z,44.80
2019-05-20T10:19:20.083Z,44.70
2019-05-20T10:21:49.705Z,44.20
2019-05-20T10:24:19.406Z,44.00
2019-05-20T10:26:49.015Z,43.50
2019-05-20T10:29:18.635Z,42.90
2019-05-20T10:31:48.199Z,42.70
2019-05-20T10:34:18.302Z,42.30
2019-05-20T10:36:47.846Z,42.50
2019-05-20T10:39:17.571Z,42.50
2019-05-20T10:41:47.295Z,42.80
2019-05-20T10:44:16.870Z,43.00
2019-05-20T10:46:46.447Z,43.10
2019-05-20T10:49:16.051Z,43.10
2019-05-20T10:51:45.914Z,42.90
2019-05-20T10:54:15.531Z,42.90
2019-05-20T10:56:45.145Z,43.30
2019-05-20T10:59:14.802Z,43.60
2019-05-20T11:01:45.554Z,43.20
2019-05-20T11:04:16.701Z,43.10
2019-05-20T11:06:46.224Z,43.20
2019-05-20T11:09:15.786Z,43.40
2019-05-20T11:11:45.436Z,43.50
2019-05-20T11:14:15.085Z,43.60
2019-05-20T11:16:44.984Z,43.60
2019-05-20T11:19:14.899Z,43.50
2019-05-20T11:21:44.565Z,43.80
2019-05-20T11:24:14.332Z,43.90
2019-05-20T11:26:43.918Z,43.90
2019-05-20T11:29:14.468Z,43.60
2019-05-20T11:31:44.470Z,43.40
2019-05-20T11:34:14.054Z,43.60
2019-05-20T11:36:43.721Z,43.80
2019-05-20T11:39:30.576Z,43.50
2019-05-20T11:41:53.393Z,43.80
2019-05-20T11:44:16.267Z,43.80
2019-05-20T11:46:45.799Z,44.00
2019-05-20T11:49:15.490Z,43.80
2019-05-20T11:51:45.179Z,43.80
2019-05-20T11:54:14.718Z,44.00
2019-05-20T11:56:44.587Z,44.00
2019-05-20T11:59:14.235Z,43.90
2019-05-20T12:01:43.820Z,43.70
2019-05-20T12:04:16.628Z,43.80
2019-05-20T12:06:46.197Z,43.70
2019-05-20T12:09:16.931Z,43.70
2019-05-20T12:11:46.530Z,43.80
2019-05-20T12:14:16.234Z,43.90
2019-05-20T12:16:46.082Z,43.70
2019-05-20T12:19:15.697Z,43.90
2019-05-20T12:21:45.378Z,43.90
2019-05-20T12:24:15.036Z,44.00
2019-05-20T12:26:44.592Z,44.40
2019-05-20T12:29:14.438Z,43.80
2019-05-20T12:31:44.119Z,43.70
2019-05-20T12:34:16.764Z,43.80
2019-05-20T12:36:46.370Z,43.60
2019-05-20T12:39:15.977Z,43.30
2019-05-20T12:41:45.730Z,43.00
2019-05-20T12:44:15.355Z,43.10
2019-05-20T12:46:44.954Z,43.00
2019-05-20T12:49:14.792Z,42.90
2019-05-20T12:51:44.631Z,43.00
2019-05-20T12:54:14.315Z,43.00
2019-05-20T12:56:43.895Z,43.10
2019-05-20T12:59:13.488Z,42.80
2019-05-20T13:01:43.439Z,42.30
2019-05-20T13:04:19.006Z,42.90
2019-05-20T13:06:48.710Z,42.40
2019-05-20T13:09:18.966Z,42.80
2019-05-20T13:11:50.218Z,42.90
2019-05-20T13:14:20.059Z,43.30
2019-05-20T13:16:49.680Z,43.50
2019-05-20T13:19:20.410Z,43.40
2019-05-20T13:21:50.021Z,43.60
2019-05-20T13:24:19.573Z,43.70
2019-05-20T13:26:49.599Z,43.60
2019-05-20T13:29:19.317Z,43.80
2019-05-20T13:31:48.917Z,43.90
2019-05-20T13:34:18.847Z,43.70
2019-05-20T13:36:48.464Z,43.10
2019-05-20T13:39:18.189Z,43.20
2019-05-20T13:42:01.394Z,42.80
2019-05-20T13:44:30.956Z,42.70
2019-05-20T13:47:00.529Z,42.50
2019-05-20T13:49:30.226Z,41.80
2019-05-20T13:52:00.115Z,41.60
2019-05-20T13:54:29.742Z,41.30
2019-05-20T13:56:59.341Z,41.20
2019-05-20T13:59:28.906Z,41.50
2019-05-20T14:01:58.741Z,41.60
2019-05-20T14:04:33.004Z,41.70
2019-05-20T14:07:02.572Z,41.50
2019-05-20T14:09:33.203Z,41.50
2019-05-20T14:12:02.726Z,41.20
2019-05-20T14:14:32.346Z,41.30
2019-05-20T14:17:02.286Z,41.10
2019-05-20T14:19:31.875Z,41.00
2019-05-20T14:22:01.633Z,40.90
2019-05-20T14:24:31.290Z,40.70
2019-05-20T14:27:00.875Z,40.70
2019-05-20T14:29:30.383Z,40.70
2019-05-20T14:31:59.995Z,41.00
2019-05-20T14:34:29.590Z,41.00
2019-05-20T14:36:59.286Z,40.70
2019-05-20T14:39:28.893Z,40.60
2019-05-20T14:41:58.514Z,40.70
2019-05-20T14:44:28.263Z,41.10
2019-05-20T14:46:57.782Z,41.00
2019-05-20T14:49:27.510Z,40.70
2019-05-20T14:51:58.311Z,40.50
2019-05-20T14:54:27.818Z,40.70
2019-05-20T14:56:57.359Z,40.50
2019-05-20T14:59:26.909Z,40.40
2019-05-20T15:01:56.491Z,40.80
2019-05-20T15:04:26.139Z,40.30
2019-05-20T15:06:56.042Z,40.10
2019-05-20T15:09:25.707Z,40.10
2019-05-20T15:11:58.058Z,40.20
2019-05-20T15:14:27.578Z,40.40
2019-05-20T15:16:57.192Z,40.60
2019-05-20T15:19:26.796Z,40.80
2019-05-20T15:21:59.225Z,41.00
2019-05-20T15:24:28.920Z,40.70
2019-05-20T15:26:58.907Z,40.90
2019-05-20T15:29:28.721Z,41.10
2019-05-20T15:31:59.844Z,41.10
2019-05-20T15:34:29.632Z,41.40
2019-05-20T15:36:59.356Z,41.70
2019-05-20T15:39:28.999Z,42.20
2019-05-20T15:42:09.083Z,42.40
2019-05-20T15:44:44.558Z,42.50
2019-05-20T15:47:18.667Z,42.60
2019-05-20T15:49:46.623Z,42.90
2019-05-20T15:52:16.636Z,43.20
2019-05-20T15:54:49.788Z,43.90
2019-05-20T15:57:20.451Z,45.00
2019-05-20T15:59:50.086Z,45.00
2019-05-20T16:02:19.615Z,45.20
2019-05-20T16:04:50.648Z,45.50
2019-05-20T16:07:33.223Z,46.00
2019-05-20T16:10:04.690Z,46.30
2019-05-20T16:12:34.675Z,46.40
2019-05-20T16:15:18.575Z,46.90
2019-05-20T16:17:48.795Z,47.20
2019-05-20T16:23:10.891Z,47.50
2019-05-20T16:25:40.645Z,47.80
2019-05-20T16:28:13.068Z,47.90
2019-05-20T16:30:42.943Z,48.80
2019-05-20T16:33:12.544Z,48.40
2019-05-20T16:35:42.070Z,48.40
2019-05-20T16:38:11.970Z,48.50
2019-05-20T16:40:41.721Z,48.70
2019-05-20T16:43:11.318Z,49.00
2019-05-20T16:45:40.806Z,49.10
2019-05-20T16:48:10.629Z,49.40
2019-05-20T16:50:40.178Z,49.50
2019-05-20T16:53:09.795Z,49.50
2019-05-20T16:55:39.318Z,49.80
2019-05-20T16:58:09.012Z,49.90
2019-05-20T17:00:38.910Z,50.10
2019-05-20T17:03:09.427Z,50.30
2019-05-20T17:05:41.975Z,50.30
2019-05-20T17:08:11.578Z,50.40
2019-05-20T17:10:41.250Z,50.40
2019-05-20T17:13:14.265Z,50.60
2019-05-20T17:15:43.788Z,50.60
2019-05-20T17:18:15.255Z,50.70
2019-05-20T17:20:46.111Z,50.80
2019-05-20T17:23:16.379Z,51.00
2019-05-20T17:25:45.913Z,51.00
2019-05-20T17:28:15.538Z,51.10
2019-05-20T17:30:46.098Z,51.30
2019-05-20T17:33:15.988Z,51.50
2019-05-20T17:35:45.650Z,51.50
2019-05-20T17:38:15.341Z,51.50
2019-05-20T17:40:44.905Z,51.70
2019-05-20T17:43:15.784Z,51.60
2019-05-20T17:45:45.380Z,51.90
2019-05-20T17:48:15.074Z,51.90
2019-05-20T17:50:44.905Z,52.00
2019-05-20T17:53:14.608Z,52.00
2019-05-20T17:55:44.146Z,52.20
2019-05-20T17:58:13.779Z,52.40
2019-05-20T18:00:43.326Z,52.30
2019-05-20T18:03:13.983Z,52.50
2019-05-20T18:05:43.602Z,52.50
2019-05-20T18:08:13.190Z,53.10
2019-05-20T18:10:42.866Z,52.80
2019-05-20T18:13:12.406Z,52.60
2019-05-20T18:15:42.134Z,52.70
2019-05-20T18:18:11.983Z,52.70
2019-05-20T18:20:41.718Z,52.80
2019-05-20T18:23:12.454Z,52.90
2019-05-20T18:25:42.280Z,52.90
2019-05-20T18:28:11.937Z,52.90
2019-05-20T18:30:41.773Z,53.00
2019-05-20T18:33:11.291Z,53.20
2019-05-20T18:35:40.911Z,53.10
2019-05-20T18:38:10.703Z,53.40
2019-05-20T18:40:40.470Z,53.50
2019-05-20T18:43:10.001Z,53.10
2019-05-20T18:45:39.603Z,53.70
2019-05-20T18:48:09.106Z,53.50
2019-05-20T18:50:42.175Z,53.60
2019-05-20T18:53:11.760Z,53.60
2019-05-20T18:55:41.399Z,53.50
2019-05-20T18:58:10.894Z,53.60
2019-05-20T19:00:50.610Z,53.70
2019-05-20T19:03:26.848Z,53.70
2019-05-20T19:05:58.674Z,53.80
2019-05-20T19:08:28.198Z,53.70
2019-05-20T19:11:15.562Z,53.80
2019-05-20T19:13:48.508Z,53.70
2019-05-20T19:16:18.059Z,53.70
2019-05-20T19:18:49.843Z,53.80
2019-05-20T19:21:19.412Z,53.80
2019-05-20T19:23:48.918Z,53.80
2019-05-20T19:26:24.785Z,54.50
2019-05-20T19:28:49.731Z,54.00
2019-05-20T19:31:19.306Z,54.00
2019-05-20T19:33:48.867Z,54.00
2019-05-20T19:36:18.909Z,54.00
2019-05-20T19:38:48.611Z,54.00
2019-05-20T19:41:18.234Z,54.10
2019-05-20T19:43:48.338Z,54.00
2019-05-20T19:46:18.270Z,54.10
2019-05-20T19:48:49.139Z,54.10
2019-05-20T19:51:19.786Z,54.00
2019-05-20T19:53:49.807Z,54.00
2019-05-20T19:56:19.454Z,53.80
2019-05-20T19:58:50.046Z,53.80
2019-05-20T20:01:19.657Z,53.80
2019-05-20T20:03:49.358Z,53.90
2019-05-20T20:06:21.124Z,53.80
2019-05-20T20:08:51.211Z,53.80
2019-05-20T20:11:22.086Z,53.70
2019-05-20T20:13:51.663Z,53.70
2019-05-20T20:16:23.412Z,53.80
2019-05-20T20:18:52.996Z,53.80
2019-05-20T20:21:22.590Z,53.80
2019-05-20T20:23:52.463Z,53.80
2019-05-20T20:26:22.306Z,53.80
2019-05-20T20:28:51.882Z,53.80
2019-05-20T20:31:21.591Z,53.90
2019-05-20T20:33:51.286Z,53.90
2019-05-20T20:36:21.508Z,53.90
2019-05-20T20:38:51.231Z,53.80
2019-05-20T20:41:21.882Z,53.90
2019-05-20T20:43:51.586Z,54.00
2019-05-20T20:46:21.095Z,54.10
2019-05-20T20:48:50.670Z,54.10
2019-05-20T20:51:20.210Z,54.10
2019-05-20T20:53:49.771Z,54.10
2019-05-20T20:56:25.122Z,54.20
2019-05-20T20:58:50.817Z,54.40
2019-05-20T21:01:20.437Z,54.40
2019-05-20T21:03:49.942Z,54.40
2019-05-20T21:06:19.465Z,54.40
2019-05-20T21:08:48.983Z,54.60
2019-05-20T21:11:18.865Z,54.60
2019-05-20T21:13:48.545Z,55.20
2019-05-20T21:16:18.048Z,54.60
2019-05-20T21:18:47.614Z,54.70
2019-05-20T21:21:19.254Z,54.80
2019-05-20T21:23:48.764Z,54.80
2019-05-20T21:26:18.355Z,54.90
2019-05-20T21:28:47.979Z,54.90
2019-05-20T21:31:17.770Z,55.10
2019-05-20T21:33:47.430Z,55.10
2019-05-20T21:36:17.005Z,55.10
2019-05-20T21:38:48.121Z,55.20
2019-05-20T21:41:17.702Z,55.40
2019-05-20T21:43:47.367Z,55.30
2019-05-20T21:46:16.930Z,55.40
2019-05-20T21:48:46.550Z,55.40
2019-05-20T21:51:16.094Z,55.40
2019-05-20T21:53:45.702Z,55.40
2019-05-20T21:56:15.559Z,55.50
2019-05-20T21:58:45.200Z,55.50
2019-05-20T22:01:14.913Z,55.50
2019-05-20T22:03:44.506Z,55.50
2019-05-20T22:06:14.054Z,55.60
2019-05-20T22:08:43.594Z,55.70
2019-05-20T22:11:13.122Z,55.70
2019-05-20T22:13:42.642Z,55.80
2019-05-20T22:16:12.228Z,55.90
2019-05-20T22:18:41.814Z,56.00
2019-05-20T22:21:13.019Z,56.10
2019-05-20T22:24:07.407Z,56.20
2019-05-20T22:26:36.926Z,56.20
2019-05-20T22:29:06.615Z,56.20
2019-05-20T22:31:36.297Z,56.20
2019-05-20T22:34:05.816Z,57.00
2019-05-20T22:36:35.351Z,56.40
2019-05-20T22:39:06.739Z,56.40
2019-05-20T22:41:36.355Z,56.50
2019-05-20T22:44:05.861Z,56.40
2019-05-20T22:46:35.430Z,56.60
2019-05-20T22:49:05.146Z,56.60
2019-05-20T22:51:34.830Z,56.70
2019-05-20T22:54:04.456Z,56.70
2019-05-20T22:56:35.186Z,56.80
2019-05-20T22:59:04.778Z,57.00
2019-05-20T23:01:35.646Z,56.90
2019-05-20T23:04:05.758Z,57.00
2019-05-20T23:06:35.270Z,57.00
2019-05-20T23:09:05.947Z,57.00
2019-05-20T23:11:35.535Z,57.30
2019-05-20T23:14:05.061Z,57.20
2019-05-20T23:16:34.655Z,57.20
2019-05-20T23:19:05.290Z,57.10
2019-05-20T23:21:34.826Z,57.30
2019-05-20T23:24:04.366Z,57.20
2019-05-20T23:26:33.898Z,57.30
2019-05-20T23:29:03.477Z,57.30
2019-05-20T23:31:32.992Z,57.30
2019-05-20T23:34:12.333Z,57.30
2019-05-20T23:36:34.045Z,57.70
2019-05-20T23:39:06.038Z,57.20
2019-05-20T23:41:35.559Z,57.20
2019-05-20T23:44:05.112Z,57.10
2019-05-20T23:46:34.657Z,57.20
2019-05-20T23:49:04.231Z,57.40
2019-05-20T23:51:33.762Z,57.20
2019-05-20T23:54:03.270Z,57.40
2019-05-20T23:56:32.830Z,57.40
2019-05-20T23:59:02.779Z,57.50
